Lowlands Phoenix — 9V5327 — position and weather

sailwx.info

Track history (hours):
 
Tides and Currents Weather Stations Pressure Air Temp Water Temp Dewpoint Dewpoint Depression Visibility Wind Speed Wind Dir Waves Ship Positions

Lowlands Phoenix

Last reported at 2018-Jun-21 00:52 UTC. Time now 2018-Jun-21 04:41 UTC.
Position N 38°51' E 118°14'.

Length 289 m; draft 18.4 m.

Type: Cargo ship. MMSI: 563014200.

Date/timePositionNaut miles runAvg speedWind from/ knotsBaromVisibWave heightAir tempDewpointWater temp
2018-Jun-21 00:52N 38°51' E 118°14'0 0.8
2018-Jun-21 00:26N 38°50' E 118°14'0 0.7
2018-Jun-21 00:00N 38°50' E 118°14'1 1.3
2018-Jun-20 23:30N 38°50' E 118°15'2 3.6
2018-Jun-20 22:54N 38°50' E 118°18'3 7.1
2018-Jun-20 22:25N 38°51' E 118°22'410.7
2018-Jun-20 22:01N 38°51' E 118°27'611.6
2018-Jun-20 21:30N 38°50' E 118°35'611.5
2018-Jun-20 21:00N 38°49' E 118°42'611.4
2018-Jun-20 20:30N 38°48' E 118°49'611.2
2018-Jun-20 20:01N 38°48' E 118°56'510.9
2018-Jun-20 19:30N 38°47' E 119°03'510.6
2018-Jun-20 19:00N 38°47' E 119°10'510.5
2018-Jun-20 18:31N 38°46' E 119°17'510.2
2018-Jun-20 18:00N 38°45' E 119°23'510.0
2018-Jun-20 17:30N 38°44' E 119°30'5 9.9
2018-Jun-20 17:00N 38°44' E 119°36'5 9.9
2018-Jun-20 16:27N 38°43' E 119°43'5 9.8
2018-Jun-20 15:56N 38°42' E 119°49'9 9.9
2018-Jun-20 15:00N 38°42' E 120°01'610.1
2018-Jun-20 14:27N 38°41' E 120°08'510.2
2018-Jun-20 13:57N 38°40' E 120°15'710.5
2018-Jun-20 13:18N 38°39' E 120°23'410.8
2018-Jun-20 12:56N 38°39' E 120°28'510.8
2018-Jun-20 12:30N 38°38' E 120°34'610.9
2018-Jun-20 11:59N 38°38' E 120°41'611.2
2018-Jun-20 11:30N 38°37' E 120°48'611.7
2018-Jun-20 11:00N 38°36' E 120°56'612.2
2018-Jun-20 10:29N 38°33' E 121°03'612.3
2018-Jun-20 10:00N 38°30' E 121°09'612.0
2018-Jun-20 09:30N 38°28' E 121°17'611.8
2018-Jun-20 09:00N 38°26' E 121°24'611.7
2018-Jun-20 08:30N 38°25' E 121°31'611.4
2018-Jun-20 07:59N 38°23' E 121°38'3411.1
2018-Jun-20 04:56N 38°11' E 122°19'511.0
2018-Jun-20 04:30N 38°10' E 122°24'611.0
2018-Jun-20 04:00N 38°08' E 122°31'  
2018-Jun-16 04:03N 22°43' E 119°51'210.7
2018-Jun-16 03:51N 22°41' E 119°50'411.2
2018-Jun-16 03:28N 22°38' E 119°48'3610.5
2018-Jun-16 00:02N 22°07' E 119°28'  
Track history (hours):
 
Tides and Currents Weather Stations Pressure Air Temp Water Temp Dewpoint Dewpoint Depression Visibility Wind Speed Wind Dir Waves Ship Positions

Lowlands Phoenix

Last reported at 2018-Jun-21 00:52 UTC. Time now 2018-Jun-21 04:41 UTC.
Position N 38°51' E 118°14'.

Length 289 m; draft 18.4 m.

Type: Cargo ship. MMSI: 563014200.

Date/timePositionNaut miles runAvg speedWind from/ knotsBaromVisibWave heightAir tempDewpointWater temp
2018-Jun-21 00:52N 38°51' E 118°14'0 0.8
2018-Jun-21 00:26N 38°50' E 118°14'0 0.7
2018-Jun-21 00:00N 38°50' E 118°14'1 1.3
2018-Jun-20 23:30N 38°50' E 118°15'2 3.6
2018-Jun-20 22:54N 38°50' E 118°18'3 7.1
2018-Jun-20 22:25N 38°51' E 118°22'410.7
2018-Jun-20 22:01N 38°51' E 118°27'611.6
2018-Jun-20 21:30N 38°50' E 118°35'611.5
2018-Jun-20 21:00N 38°49' E 118°42'611.4
2018-Jun-20 20:30N 38°48' E 118°49'611.2
2018-Jun-20 20:01N 38°48' E 118°56'510.9
2018-Jun-20 19:30N 38°47' E 119°03'510.6
2018-Jun-20 19:00N 38°47' E 119°10'510.5
2018-Jun-20 18:31N 38°46' E 119°17'510.2
2018-Jun-20 18:00N 38°45' E 119°23'510.0
2018-Jun-20 17:30N 38°44' E 119°30'5 9.9
2018-Jun-20 17:00N 38°44' E 119°36'5 9.9
2018-Jun-20 16:27N 38°43' E 119°43'5 9.8
2018-Jun-20 15:56N 38°42' E 119°49'9 9.9
2018-Jun-20 15:00N 38°42' E 120°01'610.1
2018-Jun-20 14:27N 38°41' E 120°08'510.2
2018-Jun-20 13:57N 38°40' E 120°15'710.5
2018-Jun-20 13:18N 38°39' E 120°23'410.8
2018-Jun-20 12:56N 38°39' E 120°28'510.8
2018-Jun-20 12:30N 38°38' E 120°34'610.9
2018-Jun-20 11:59N 38°38' E 120°41'611.2
2018-Jun-20 11:30N 38°37' E 120°48'611.7
2018-Jun-20 11:00N 38°36' E 120°56'612.2
2018-Jun-20 10:29N 38°33' E 121°03'612.3
2018-Jun-20 10:00N 38°30' E 121°09'612.0
2018-Jun-20 09:30N 38°28' E 121°17'611.8
2018-Jun-20 09:00N 38°26' E 121°24'611.7
2018-Jun-20 08:30N 38°25' E 121°31'611.4
2018-Jun-20 07:59N 38°23' E 121°38'3411.1
2018-Jun-20 04:56N 38°11' E 122°19'511.0
2018-Jun-20 04:30N 38°10' E 122°24'611.0
2018-Jun-20 04:00N 38°08' E 122°31'  
2018-Jun-16 04:03N 22°43' E 119°51'210.7
2018-Jun-16 03:51N 22°41' E 119°50'411.2
2018-Jun-16 03:28N 22°38' E 119°48'3610.5
2018-Jun-16 00:02N 22°07' E 119°28'  

Dump ship's entire track history